createdAt,value
2018-04-12T00:01:19.795Z,11.79
2018-04-12T00:03:50.558Z,11.73
2018-04-12T00:06:21.356Z,11.67
2018-04-12T00:08:52.130Z,11.73
2018-04-12T00:11:22.900Z,11.58
2018-04-12T00:13:53.668Z,11.77
2018-04-12T00:16:24.468Z,11.87
2018-04-12T00:18:55.235Z,11.86
2018-04-12T00:21:26.228Z,11.74
2018-04-12T00:23:56.996Z,11.70
2018-04-12T00:26:27.778Z,11.50
2018-04-12T00:28:58.535Z,11.30
2018-04-12T00:31:29.305Z,11.31
2018-04-12T00:34:00.082Z,11.12
2018-04-12T00:36:30.880Z,11.18
2018-04-12T00:39:01.663Z,11.26
2018-04-12T00:41:32.448Z,11.28
2018-04-12T00:44:03.221Z,11.28
2018-04-12T00:46:34.020Z,11.28
2018-04-12T00:49:04.798Z,11.33
2018-04-12T00:51:35.585Z,11.42
2018-04-12T00:54:07.203Z,11.65
2018-04-12T00:56:38.021Z,11.67
2018-04-12T00:59:08.776Z,11.86
2018-04-12T01:01:39.548Z,11.92
2018-04-12T01:04:10.323Z,12.26
2018-04-12T01:06:41.102Z,12.25
2018-04-12T01:09:11.863Z,12.30
2018-04-12T01:11:42.656Z,12.38
2018-04-12T01:14:13.435Z,12.59
2018-04-12T01:16:44.220Z,12.76
2018-04-12T01:19:15.011Z,12.86
2018-04-12T01:21:45.791Z,12.84
2018-04-12T01:24:16.603Z,12.80
2018-04-12T01:26:47.439Z,12.89
2018-04-12T01:29:18.192Z,12.95
2018-04-12T01:31:48.991Z,12.99
2018-04-12T01:34:19.764Z,12.89
2018-04-12T01:36:50.551Z,12.68
2018-04-12T01:39:21.307Z,12.59
2018-04-12T01:41:52.112Z,12.59
2018-04-12T01:44:22.903Z,12.55
2018-04-12T01:46:53.687Z,12.48
2018-04-12T01:49:24.452Z,12.46
2018-04-12T01:51:55.243Z,12.51
2018-04-12T01:54:26.023Z,12.34
2018-04-12T01:56:56.822Z,12.41
2018-04-12T01:59:27.583Z,12.24
2018-04-12T02:01:58.381Z,12.29
2018-04-12T02:04:29.143Z,12.47
2018-04-12T02:06:59.916Z,12.41
2018-04-12T02:09:30.691Z,12.46
2018-04-12T02:12:01.475Z,12.46
2018-04-12T02:14:32.228Z,12.40
2018-04-12T02:17:03.034Z,12.36
2018-04-12T02:19:33.804Z,12.28
2018-04-12T02:22:04.590Z,12.25
2018-04-12T02:24:35.355Z,12.41
2018-04-12T02:27:06.147Z,12.36
2018-04-12T02:29:36.919Z,12.55
2018-04-12T02:32:07.747Z,12.37
2018-04-12T02:34:38.511Z,12.24
2018-04-12T02:37:09.287Z,12.41
2018-04-12T02:39:40.031Z,12.25
2018-04-12T02:42:10.803Z,12.29
2018-04-12T02:44:41.549Z,12.26
2018-04-12T02:47:12.331Z,12.24
2018-04-12T02:49:43.072Z,12.26
2018-04-12T02:52:13.847Z,12.33
2018-04-12T02:54:44.592Z,12.36
2018-04-12T02:57:15.363Z,12.32
2018-04-12T02:59:46.131Z,12.51
2018-04-12T03:02:16.923Z,12.57
2018-04-12T03:04:47.664Z,12.64
2018-04-12T03:07:18.445Z,12.74
2018-04-12T03:09:49.195Z,12.77
2018-04-12T03:12:19.980Z,12.70
2018-04-12T03:14:50.733Z,12.74
2018-04-12T03:17:21.521Z,12.73
2018-04-12T03:19:52.304Z,12.78
2018-04-12T03:22:23.064Z,12.61
2018-04-12T03:24:53.852Z,12.80
2018-04-12T03:27:24.611Z,12.83
2018-04-12T03:29:55.410Z,12.75
2018-04-12T03:32:26.131Z,12.76
2018-04-12T03:34:56.888Z,12.65
2018-04-12T03:37:27.648Z,12.99
2018-04-12T03:39:58.404Z,12.76
2018-04-12T03:42:29.183Z,12.62
2018-04-12T03:44:59.916Z,12.66
2018-04-12T03:47:30.687Z,12.71
2018-04-12T03:50:01.469Z,12.74
2018-04-12T03:52:32.201Z,12.75
2018-04-12T03:55:02.967Z,12.85
2018-04-12T03:57:33.738Z,12.85
2018-04-12T04:00:04.516Z,12.89
2018-04-12T04:02:35.320Z,12.95
2018-04-12T04:05:06.076Z,12.98
2018-04-12T04:07:36.861Z,13.13
2018-04-12T04:10:07.628Z,13.23
2018-04-12T04:12:38.430Z,13.24
2018-04-12T04:15:23.149Z,13.30
2018-04-12T04:18:06.476Z,13.41
2018-04-12T04:20:49.840Z,13.41
2018-04-12T04:23:20.596Z,13.39
2018-04-12T04:25:51.348Z,13.46
2018-04-12T04:28:22.124Z,13.45
2018-04-12T04:30:52.868Z,13.49
2018-04-12T04:33:23.651Z,13.48
2018-04-12T04:35:54.428Z,13.46
2018-04-12T04:38:25.204Z,13.47
2018-04-12T04:40:55.983Z,13.50
2018-04-12T04:43:26.763Z,13.63
2018-04-12T04:45:57.523Z,13.69
2018-04-12T04:48:28.300Z,13.80
2018-04-12T04:50:59.066Z,13.92
2018-04-12T04:53:29.856Z,14.01
2018-04-12T04:56:00.638Z,14.12
2018-04-12T04:58:31.415Z,14.12
2018-04-12T05:01:02.211Z,14.32
2018-04-12T05:03:33.041Z,14.35
2018-04-12T05:06:03.827Z,14.37
2018-04-12T05:08:34.615Z,14.41
2018-04-12T05:11:05.407Z,14.38
2018-04-12T05:13:36.195Z,14.46
2018-04-12T05:16:06.995Z,14.51
2018-04-12T05:18:37.785Z,14.55
2018-04-12T05:21:08.588Z,14.56
2018-04-12T05:23:39.397Z,14.62
2018-04-12T05:26:10.184Z,14.62
2018-04-12T05:28:40.964Z,14.63
2018-04-12T05:31:11.731Z,14.69
2018-04-12T05:33:42.514Z,14.65
2018-04-12T05:36:13.267Z,14.72
2018-04-12T05:38:44.080Z,14.72
2018-04-12T05:41:14.796Z,14.85
2018-04-12T05:43:45.570Z,14.82
2018-04-12T05:46:16.337Z,14.86
2018-04-12T05:48:47.100Z,14.96
2018-04-12T05:51:17.861Z,14.90
2018-04-12T05:53:48.652Z,14.93
2018-04-12T05:56:19.444Z,14.91
2018-04-12T05:58:50.275Z,14.95
2018-04-12T06:01:21.054Z,15.03
2018-04-12T06:03:51.836Z,15.13
2018-04-12T06:06:22.615Z,15.20
2018-04-12T06:08:53.420Z,15.32
2018-04-12T06:11:24.187Z,15.41
2018-04-12T06:13:54.972Z,15.60
2018-04-12T06:16:25.737Z,15.49
2018-04-12T06:18:56.520Z,15.68
2018-04-12T06:21:27.304Z,15.87
2018-04-12T06:23:58.091Z,15.89
2018-04-12T06:26:28.851Z,15.93
2018-04-12T06:28:59.632Z,16.03
2018-04-12T06:31:30.388Z,16.69
2018-04-12T06:34:01.183Z,17.82
2018-04-12T06:36:31.958Z,19.12
2018-04-12T06:39:02.797Z,20.51
2018-04-12T06:41:33.558Z,20.41
2018-04-12T06:44:04.363Z,20.87
2018-04-12T06:46:35.137Z,20.70
2018-04-12T06:49:05.912Z,19.95
2018-04-12T06:51:36.699Z,20.41
2018-04-12T06:54:07.516Z,21.27
2018-04-12T06:56:38.273Z,21.03
2018-04-12T06:59:09.063Z,21.01
2018-04-12T07:01:39.833Z,21.64
2018-04-12T07:04:10.617Z,20.13
2018-04-12T07:06:41.371Z,19.17
2018-04-12T07:09:12.173Z,18.97
2018-04-12T07:11:42.979Z,18.58
2018-04-12T07:14:13.759Z,19.03
2018-04-12T07:16:44.547Z,19.63
2018-04-12T07:19:15.383Z,19.87
2018-04-12T07:21:46.119Z,20.60
2018-04-12T07:24:16.899Z,21.67
2018-04-12T07:26:47.651Z,22.74
2018-04-12T07:29:18.448Z,23.24
2018-04-12T07:31:49.207Z,23.19
2018-04-12T07:34:20.023Z,22.69
2018-04-12T07:36:50.777Z,22.74
2018-04-12T07:39:28.652Z,22.70
2018-04-12T07:41:59.439Z,22.29
2018-04-12T07:44:30.241Z,21.83
2018-04-12T07:47:01.004Z,23.06
2018-04-12T07:49:31.793Z,23.62
2018-04-12T07:52:02.591Z,24.16
2018-04-12T07:54:33.368Z,24.22
2018-04-12T07:57:04.144Z,23.84
2018-04-12T07:59:34.932Z,24.07
2018-04-12T08:02:05.719Z,22.60
2018-04-12T08:04:36.518Z,21.67
2018-04-12T08:07:07.303Z,21.43
2018-04-12T08:09:38.096Z,20.95
2018-04-12T08:12:08.884Z,20.82
2018-04-12T08:14:39.691Z,21.69
2018-04-12T08:17:10.482Z,22.03
2018-04-12T08:19:41.284Z,22.04
2018-04-12T08:22:12.051Z,23.35
2018-04-12T08:24:42.863Z,24.60
2018-04-12T08:27:13.643Z,23.91
2018-04-12T08:29:44.439Z,23.98
2018-04-12T08:32:15.210Z,23.88
2018-04-12T08:34:46.008Z,23.99
2018-04-12T08:37:16.763Z,22.93
2018-04-12T08:39:47.571Z,22.00
2018-04-12T08:42:18.335Z,21.89
2018-04-12T08:44:49.119Z,22.12
2018-04-12T08:47:19.887Z,22.84
2018-04-12T08:49:50.703Z,23.08
2018-04-12T08:52:21.458Z,23.94
2018-04-12T08:54:52.228Z,24.39
2018-04-12T08:57:22.982Z,25.11
2018-04-12T08:59:53.775Z,24.85
2018-04-12T09:02:24.546Z,24.16
2018-04-12T09:04:55.336Z,24.08
2018-04-12T09:07:26.099Z,24.89
2018-04-12T09:09:56.891Z,24.43
2018-04-12T14:06:59.723Z,23.04
2018-04-12T14:15:32.698Z,22.48
2018-04-12T14:18:07.107Z,22.14
2018-04-12T14:20:38.947Z,22.31
2018-04-12T14:23:49.216Z,22.18
2018-04-12T14:26:26.926Z,22.44
2018-04-12T14:29:16.072Z,22.39
2018-04-12T14:31:47.564Z,22.54
2018-04-12T14:34:22.582Z,22.48
2018-04-12T14:36:53.866Z,22.57
2018-04-12T14:39:25.153Z,22.46
2018-04-12T14:41:56.544Z,22.52
2018-04-12T14:44:27.912Z,22.44
2018-04-12T14:46:59.296Z,22.31
2018-04-12T14:49:30.605Z,22.33
2018-04-12T14:52:01.957Z,22.39
2018-04-12T14:54:33.282Z,22.27
2018-04-12T14:57:04.620Z,22.39
2018-04-12T14:59:55.872Z,22.35
2018-04-12T15:03:01.135Z,22.22
2018-04-12T15:05:33.447Z,22.15
2018-04-12T15:08:21.954Z,22.30
2018-04-12T15:11:08.645Z,22.32
2018-04-12T15:13:40.256Z,22.12
2018-04-12T15:16:18.222Z,22.07
2018-04-12T15:19:07.617Z,22.22
2018-04-12T15:21:51.361Z,22.15
2018-04-12T15:24:37.400Z,22.11
2018-04-12T15:27:09.784Z,22.09
2018-04-12T15:29:46.446Z,22.11
2018-04-12T15:32:31.088Z,22.17
2018-04-12T15:35:03.970Z,22.31
2018-04-12T15:37:35.277Z,22.36
2018-04-12T15:40:12.717Z,22.46
2018-04-12T15:42:45.537Z,22.48
2018-04-12T15:45:40.614Z,22.43
2018-04-12T15:48:13.823Z,22.36
2018-04-12T16:06:32.279Z,22.25
2018-04-12T16:12:12.802Z,22.11
2018-04-12T16:14:46.101Z,22.24
2018-04-12T16:17:18.469Z,22.37
2018-04-12T16:19:49.826Z,22.16
2018-04-12T16:22:22.553Z,22.13
2018-04-12T16:24:53.913Z,22.14
2018-04-12T16:27:25.290Z,22.04
2018-04-12T16:29:56.574Z,21.99
2018-04-12T16:32:27.902Z,21.90
2018-04-12T16:34:59.821Z,21.92
2018-04-12T16:37:31.578Z,21.80
2018-04-12T16:40:03.330Z,21.81
2018-04-12T16:42:34.948Z,21.74
2018-04-12T16:45:06.362Z,21.77
2018-04-12T16:47:37.619Z,21.87
2018-04-12T16:50:08.860Z,21.78
2018-04-12T16:52:40.202Z,21.83
2018-04-12T16:55:11.438Z,21.76
2018-04-12T16:57:42.693Z,21.76
2018-04-12T17:00:13.976Z,21.72
2018-04-12T17:02:45.996Z,21.74
2018-04-12T17:05:17.336Z,21.61
2018-04-12T17:07:48.629Z,21.66
2018-04-12T17:10:19.892Z,21.59
2018-04-12T17:12:51.487Z,21.48
2018-04-12T17:15:22.753Z,21.43
2018-04-12T17:17:54.248Z,21.28
2018-04-12T17:20:25.523Z,21.12
2018-04-12T17:22:56.806Z,20.99
2018-04-12T17:25:28.029Z,20.81
2018-04-12T17:27:59.317Z,20.73
2018-04-12T17:30:30.558Z,20.59
2018-04-12T17:33:02.029Z,20.47
2018-04-12T17:35:33.298Z,20.28
2018-04-12T17:38:04.684Z,20.15
2018-04-12T17:40:35.912Z,19.96
2018-04-12T17:43:08.188Z,19.78
2018-04-12T17:45:40.397Z,19.65
2018-04-12T17:48:13.403Z,19.63
2018-04-12T17:50:45.354Z,19.50
2018-04-12T17:53:17.217Z,19.38
2018-04-12T17:55:48.944Z,19.39
2018-04-12T17:58:20.777Z,19.37
2018-04-12T18:00:52.718Z,19.40
2018-04-12T18:03:24.688Z,19.28
2018-04-12T18:05:57.307Z,19.25
2018-04-12T18:08:28.609Z,19.26
2018-04-12T18:11:00.712Z,19.20
2018-04-12T18:13:32.638Z,19.16
2018-04-12T18:16:04.002Z,19.23
2018-04-12T18:18:35.316Z,19.21
2018-04-12T18:21:06.661Z,19.08
2018-04-12T18:23:37.910Z,18.99
2018-04-12T18:26:10.483Z,18.98
2018-04-12T18:28:42.653Z,18.89
2018-04-12T18:31:14.972Z,18.77
2018-04-12T18:33:47.367Z,18.72
2018-04-12T18:36:19.613Z,18.76
2018-04-12T18:38:51.873Z,18.77
2018-04-12T18:41:23.755Z,18.82
2018-04-12T18:43:55.033Z,18.71
2018-04-12T18:46:26.876Z,18.72
2018-04-12T18:48:58.724Z,18.68
2018-04-12T18:51:30.821Z,18.70
2018-04-12T18:54:02.997Z,18.75
2018-04-12T18:56:34.316Z,18.70
2018-04-12T18:59:05.553Z,18.68
2018-04-12T19:01:36.888Z,18.57
2018-04-12T19:04:08.155Z,18.48
2018-04-12T19:06:39.440Z,18.45
2018-04-12T19:09:10.870Z,18.44
2018-04-12T19:11:42.866Z,18.39
2018-04-12T19:14:14.900Z,18.32
2018-04-12T19:16:46.932Z,18.33
2018-04-12T19:19:18.282Z,18.24
2018-04-12T19:21:50.240Z,18.14
2018-04-12T19:24:21.923Z,18.03
2018-04-12T19:26:53.724Z,17.99
2018-04-12T19:29:25.453Z,17.86
2018-04-12T19:31:57.273Z,17.85
2018-04-12T19:34:29.078Z,17.83
2018-04-12T19:37:08.199Z,17.75
2018-04-12T19:39:40.258Z,17.78
2018-04-12T19:42:12.338Z,17.75
2018-04-12T19:44:44.273Z,17.65
2018-04-12T19:47:16.071Z,17.60
2018-04-12T19:49:48.093Z,17.54
2018-04-12T19:52:19.928Z,17.47
2018-04-12T19:54:51.733Z,17.46
2018-04-12T19:57:23.776Z,17.56
2018-04-12T19:59:55.801Z,17.57
2018-04-12T20:02:27.198Z,17.51
2018-04-12T20:04:59.053Z,17.40
2018-04-12T20:07:30.861Z,17.34
2018-04-12T20:10:03.126Z,17.29
2018-04-12T20:12:34.961Z,17.23
2018-04-12T20:15:06.845Z,17.09
2018-04-12T20:17:38.126Z,17.05
2018-04-12T20:20:09.388Z,16.87
2018-04-12T20:22:40.661Z,16.90
2018-04-12T20:25:12.599Z,16.98
2018-04-12T20:27:44.888Z,16.97
2018-04-12T20:30:16.839Z,16.88
2018-04-12T20:32:49.208Z,16.85
2018-04-12T20:35:21.218Z,16.79
2018-04-12T20:37:53.255Z,16.77
2018-04-12T20:40:25.608Z,16.71
2018-04-12T20:42:57.717Z,16.77
2018-04-12T20:45:29.658Z,16.72
2018-04-12T20:48:01.848Z,16.60
2018-04-12T20:50:33.203Z,16.59
2018-04-12T20:53:04.969Z,16.60
2018-04-12T20:55:36.203Z,16.52
2018-04-12T20:58:08.033Z,16.41
2018-04-12T21:00:39.728Z,16.47
2018-04-12T21:03:11.630Z,16.47
2018-04-12T21:05:43.616Z,16.39
2018-04-12T21:08:15.982Z,16.34
2018-04-12T21:10:48.045Z,16.28
2018-04-12T21:13:19.986Z,16.22
2018-04-12T21:19:05.697Z,16.06
2018-04-12T21:21:38.082Z,16.01
2018-04-12T21:24:11.125Z,15.88
2018-04-12T21:26:42.584Z,15.81
2018-04-12T21:29:13.879Z,15.78
2018-04-12T21:31:45.276Z,15.63
2018-04-12T21:34:16.747Z,15.66
2018-04-12T21:36:48.065Z,15.53
2018-04-12T21:39:19.387Z,15.36
2018-04-12T21:42:14.452Z,15.26
2018-04-12T21:44:47.065Z,15.17
2018-04-12T21:47:18.737Z,15.07
2018-04-12T21:49:56.688Z,15.01
2018-04-12T21:52:30.701Z,14.86
2018-04-12T21:55:08.619Z,14.87
2018-04-12T21:57:40.898Z,14.81
2018-04-12T22:00:12.660Z,14.78
2018-04-12T22:02:44.054Z,14.73
2018-04-12T22:05:15.549Z,14.67
2018-04-12T22:07:46.858Z,14.58
2018-04-12T22:10:18.065Z,14.52
2018-04-12T22:12:49.391Z,14.51
2018-04-12T22:15:23.187Z,14.40
2018-04-12T22:17:54.526Z,14.39
2018-04-12T22:20:26.051Z,14.31
2018-04-12T22:23:03.877Z,14.18
2018-04-12T22:25:43.574Z,14.17
